Time;durP1;ratioP1;P1;durP2;ratioP2;P2;SDS_P1;SDS_P2;PMS_P1;PMS_P2;Temp;Humidity;BMP_temperature;BMP_pressure;BME280_temperature;BME280_humidity;BME280_pressure;Samples;Min_cycle;Max_cycle;Signal;HPM_P1;HPM_P2
2022/11/07 00:02:25;;;;;;;17.25;8.15;;;;;;;9.93;100.00;94852.13;5127061;27;20234;-77
2022/11/07 00:04:53;;;;;;;18.13;9.02;;;;;;;10.07;100.00;94848.47;5104570;28;20202;-75
2022/11/07 00:07:20;;;;;;;13.25;8.23;;;;;;;10.04;100.00;94849.09;5106147;28;20238;-75
2022/11/07 00:09:46;;;;;;;16.42;8.38;;;;;;;10.02;100.00;94851.34;5102271;28;20251;-75
2022/11/07 00:12:13;;;;;;;21.67;9.38;;;;;;;9.93;100.00;94860.25;5116116;27;20266;-76
2022/11/07 00:14:40;;;;;;;19.08;8.57;;;;;;;9.91;100.00;94859.78;5123890;27;20225;-76
2022/11/07 00:17:07;;;;;;;13.57;7.40;;;;;;;9.91;100.00;94862.47;5115704;27;20615;-75
2022/11/07 00:19:34;;;;;;;15.27;8.65;;;;;;;9.92;100.00;94855.97;5123367;27;20278;-76
2022/11/07 00:22:02;;;;;;;16.60;8.45;;;;;;;9.96;100.00;94848.81;5099316;28;20206;-75
2022/11/07 00:24:29;;;;;;;13.27;8.43;;;;;;;9.90;100.00;94843.84;5112298;28;20701;-75
2022/11/07 00:26:56;;;;;;;14.15;7.60;;;;;;;9.85;100.00;94852.91;5130424;27;20250;-75
2022/11/07 00:29:22;;;;;;;16.40;8.57;;;;;;;9.82;100.00;94848.16;5122425;27;20201;-76
2022/11/07 00:31:50;;;;;;;16.80;8.38;;;;;;;9.85;100.00;94854.81;5125424;27;20287;-77
2022/11/07 00:34:17;;;;;;;14.10;8.70;;;;;;;9.89;100.00;94851.19;5102002;28;20232;-76
2022/11/07 00:36:43;;;;;;;17.25;10.15;;;;;;;9.87;100.00;94853.41;5114768;27;20254;-76
2022/11/07 00:39:12;;;;;;;15.45;8.05;;;;;;;9.92;100.00;94845.13;5122013;27;20263;-76
2022/11/07 00:41:39;;;;;;;13.93;9.00;;;;;;;9.98;100.00;94854.66;5126726;27;20274;-76
2022/11/07 00:44:06;;;;;;;18.23;7.78;;;;;;;10.03;100.00;94856.44;5123586;27;20254;-76
2022/11/07 00:46:32;;;;;;;13.13;7.68;;;;;;;9.94;100.00;94842.91;5119485;27;20201;-75
2022/11/07 00:48:59;;;;;;;9.20;6.15;;;;;;;9.99;100.00;94858.97;5121137;27;20725;-75
2022/11/07 00:51:27;;;;;;;14.02;7.63;;;;;;;9.95;100.00;94860.75;5117693;27;20197;-76
2022/11/07 00:53:55;;;;;;;14.80;7.75;;;;;;;9.98;100.00;94854.66;5133227;27;20204;-76
2022/11/07 00:56:25;;;;;;;15.00;7.53;;;;;;;9.97;100.00;94853.09;5113718;27;20234;-76
2022/11/07 00:58:56;;;;;;;20.13;8.48;;;;;;;9.96;100.00;94851.50;5125931;27;20200;-76
2022/11/07 01:01:24;;;;;;;11.18;6.78;;;;;;;9.89;100.00;94845.75;5118828;27;20701;-75
2022/11/07 01:06:37;;;;;;;14.93;7.43;;;;;;;9.77;100.00;94850.22;5122672;27;20225;-75
2022/11/07 01:09:05;;;;;;;17.40;9.48;;;;;;;9.62;100.00;94851.47;5126148;27;20231;-75
2022/11/07 01:11:35;;;;;;;16.25;8.30;;;;;;;9.45;100.00;94846.00;5122674;27;20273;-76
2022/11/07 01:14:03;;;;;;;15.20;7.97;;;;;;;9.36;100.00;94834.38;5119148;27;20284;-76
2022/11/07 01:16:33;;;;;;;18.70;9.60;;;;;;;9.16;100.00;94839.25;5121429;27;20232;-76
2022/11/07 01:19:00;;;;;;;15.52;8.10;;;;;;;9.16;100.00;94833.03;5125641;27;20221;-76
2022/11/07 01:21:27;;;;;;;20.88;9.55;;;;;;;9.23;100.00;94828.78;5124214;27;20250;-75
2022/11/07 01:23:54;;;;;;;16.65;9.48;;;;;;;9.23;100.00;94822.59;5113208;27;20660;-75
2022/11/07 01:26:21;;;;;;;18.02;11.15;;;;;;;9.32;100.00;94825.31;5124099;27;20205;-75
2022/11/07 01:28:49;;;;;;;15.45;8.85;;;;;;;9.36;100.00;94826.28;5106937;27;20202;-75
2022/11/07 01:31:18;;;;;;;12.77;7.97;;;;;;;9.37;100.00;94833.28;5103800;28;20233;-75
2022/11/07 01:33:47;;;;;;;20.42;9.40;;;;;;;9.30;100.00;94824.81;5097077;28;20209;-75
2022/11/07 01:36:16;;;;;;;16.45;8.65;;;;;;;9.36;100.00;94831.69;5124359;27;20257;-74
2022/11/07 01:38:48;;;;;;;17.15;8.82;;;;;;;9.35;100.00;94827.38;5097959;28;20205;-75
2022/11/07 01:41:24;;;;;;;16.67;8.63;;;;;;;9.48;100.00;94824.56;5125487;27;20228;-74
2022/11/07 01:43:59;;;;;;;16.55;8.27;;;;;;;9.67;100.00;94824.28;5120652;27;20200;-74
2022/11/07 01:46:29;;;;;;;15.18;8.60;;;;;;;9.61;100.00;94820.91;5118395;27;20188;-74
2022/11/07 01:49:02;;;;;;;16.13;9.43;;;;;;;9.57;100.00;94821.84;5120583;27;20266;-75
2022/11/07 01:51:33;;;;;;;20.63;8.57;;;;;;;9.63;100.00;94820.59;5106068;28;20785;-75
2022/11/07 01:54:01;;;;;;;17.75;10.48;;;;;;;9.68;100.00;94816.94;5103546;28;20582;-75
2022/11/07 01:56:30;;;;;;;19.42;8.50;;;;;;;9.68;100.00;94823.16;5131021;27;20281;-75
2022/11/07 01:59:00;;;;;;;14.50;7.88;;;;;;;9.33;100.00;94821.50;5118383;27;20756;-75
2022/11/07 02:01:26;;;;;;;15.32;7.90;;;;;;;9.17;100.00;94829.22;5124466;27;20815;-75
2022/11/07 02:03:56;;;;;;;23.42;9.98;;;;;;;9.05;100.00;94837.94;5110374;28;20254;-75
2022/11/07 02:06:28;;;;;;;16.52;8.75;;;;;;;8.96;100.00;94834.41;5104403;27;20208;-75
2022/11/07 02:08:55;;;;;;;13.98;7.88;;;;;;;8.89;100.00;94834.84;5117813;27;20266;-75
2022/11/07 02:11:23;;;;;;;16.42;10.25;;;;;;;8.65;100.00;94833.63;5123981;27;20255;-75
2022/11/07 02:13:50;;;;;;;17.60;8.38;;;;;;;8.61;100.00;94843.47;5124560;27;20254;-74
2022/11/07 02:16:18;;;;;;;12.70;7.18;;;;;;;8.62;100.00;94842.34;5119482;27;20233;-76
2022/11/07 02:18:45;;;;;;;16.67;8.00;;;;;;;8.59;100.00;94845.69;5115926;27;20230;-75
2022/11/07 02:21:28;;;;;;;14.50;7.65;;;;;;;8.38;100.00;94840.78;5119866;27;20230;-75
2022/11/07 02:24:00;;;;;;;18.30;9.13;;;;;;;8.40;100.00;94841.28;5126201;27;20669;-76
2022/11/07 02:26:29;;;;;;;19.90;9.77;;;;;;;8.35;100.00;94844.09;5122459;27;20221;-75
2022/11/07 02:28:57;;;;;;;14.80;8.27;;;;;;;8.35;100.00;94846.78;5117335;27;20284;-75
2022/11/07 02:31:24;;;;;;;14.20;7.68;;;;;;;8.38;100.00;94846.19;5118121;27;20241;-75
2022/11/07 02:33:51;;;;;;;14.88;8.40;;;;;;;8.34;100.00;94849.81;5102822;27;20212;-75
2022/11/07 02:36:21;;;;;;;18.05;8.70;;;;;;;8.45;100.00;94846.56;5118330;27;20604;-75
2022/11/07 02:38:56;;;;;;;14.43;8.15;;;;;;;8.54;100.00;94850.09;5124509;27;20204;-75
2022/11/07 02:41:25;;;;;;;23.10;8.63;;;;;;;8.52;100.00;94852.31;5124532;27;20596;-75
2022/11/07 02:43:58;;;;;;;20.00;8.30;;;;;;;8.45;100.00;94838.47;5118011;27;20205;-76
2022/11/07 02:46:25;;;;;;;23.55;8.00;;;;;;;8.45;100.00;94833.06;5117113;27;20227;-74
2022/11/07 02:48:55;;;;;;;16.20;9.18;;;;;;;8.43;100.00;94840.66;5119334;27;20722;-75
2022/11/07 02:51:22;;;;;;;15.30;9.43;;;;;;;8.38;100.00;94835.38;5114808;27;20204;-75
2022/11/07 02:53:49;;;;;;;19.42;8.10;;;;;;;8.43;100.00;94843.38;5119776;27;20273;-74
2022/11/07 02:56:15;;;;;;;19.08;7.82;;;;;;;8.44;100.00;94844.97;5124232;27;20201;-75
2022/11/07 02:58:42;;;;;;;15.88;8.20;;;;;;;8.40;100.00;94838.59;5121522;27;20246;-74
2022/11/07 03:01:11;;;;;;;19.35;8.77;;;;;;;8.43;100.00;94850.66;5116849;27;20647;-75
2022/11/07 03:03:41;;;;;;;14.75;7.93;;;;;;;8.39;100.00;94842.38;5130206;27;20197;-75
2022/11/07 03:06:10;;;;;;;18.40;8.88;;;;;;;8.42;100.00;94841.78;5116815;27;20217;-74
2022/11/07 03:08:37;;;;;;;15.98;8.93;;;;;;;8.39;100.00;94842.38;5118255;27;20202;-75
2022/11/07 03:11:04;;;;;;;18.75;9.05;;;;;;;8.38;100.00;94840.78;5124012;28;20202;-75
2022/11/07 03:13:31;;;;;;;14.93;7.78;;;;;;;8.24;100.00;94850.81;5110703;28;20565;-75
2022/11/07 03:15:58;;;;;;;17.80;8.10;;;;;;;8.24;100.00;94850.03;5124151;28;20603;-75
2022/11/07 03:18:27;;;;;;;11.15;7.68;;;;;;;8.21;100.00;94840.63;5122841;28;20230;-75
2022/11/07 03:20:53;;;;;;;14.15;8.30;;;;;;;8.19;100.00;94853.66;5116707;27;20197;-75
2022/11/07 03:23:20;;;;;;;14.43;7.95;;;;;;;8.27;100.00;94850.22;5129769;27;20204;-76
2022/11/07 03:25:47;;;;;;;15.43;8.75;;;;;;;8.17;100.00;94856.66;5116725;27;20298;-75
2022/11/07 03:28:13;;;;;;;14.55;7.60;;;;;;;8.15;100.00;94853.47;5117407;27;20247;-76
2022/11/07 03:30:40;;;;;;;13.07;7.57;;;;;;;8.11;100.00;94847.09;5123610;28;20202;-75
2022/11/07 03:33:07;;;;;;;22.85;8.60;;;;;;;8.04;100.00;94859.41;5123548;28;20185;-75
2022/11/07 03:35:35;;;;;;;13.32;6.65;;;;;;;7.93;100.00;94863.44;5103038;28;20208;-75
2022/11/07 03:38:02;;;;;;;15.02;7.82;;;;;;;7.68;100.00;94859.41;5116631;27;20694;-75
2022/11/07 03:40:29;;;;;;;9.73;6.30;;;;;;;7.67;100.00;94873.97;5122987;27;20626;-74
2022/11/07 03:42:55;;;;;;;12.35;6.97;;;;;;;7.61;100.00;94880.59;5124177;28;20684;-75
2022/11/07 03:45:22;;;;;;;14.77;6.57;;;;;;;7.64;100.00;94886.19;5102521;28;20291;-75
2022/11/07 03:47:49;;;;;;;13.95;6.97;;;;;;;7.71;100.00;94885.78;5103873;28;20239;-75
2022/11/07 03:50:18;;;;;;;13.20;7.05;;;;;;;7.76;100.00;94886.47;5118007;28;20263;-76
2022/11/07 03:52:46;;;;;;;14.60;7.18;;;;;;;7.84;100.00;94891.13;5116806;27;20201;-74
2022/11/07 03:55:14;;;;;;;14.98;7.50;;;;;;;7.91;100.00;94889.94;5120778;27;20246;-75
2022/11/07 03:57:41;;;;;;;23.13;7.57;;;;;;;7.85;100.00;94903.50;5123687;28;20289;-74
2022/11/07 04:00:09;;;;;;;15.10;8.88;;;;;;;7.85;100.00;94902.72;5121300;27;20201;-75
2022/11/07 04:02:36;;;;;;;10.52;6.93;;;;;;;7.90;100.00;94899.13;5117103;27;20262;-74
2022/11/07 04:05:03;;;;;;;13.00;7.55;;;;;;;7.99;100.00;94902.69;5123485;27;20605;-75
2022/11/07 04:07:30;;;;;;;14.90;8.13;;;;;;;8.07;100.00;94910.03;5120115;27;20577;-75
2022/11/07 04:09:58;;;;;;;14.73;6.25;;;;;;;8.10;100.00;94904.03;5124082;27;20198;-75
2022/11/07 04:17:53;;;;;;;8.55;5.88;;;;;;;8.13;100.00;94919.63;5111213;27;20210;-75
2022/11/07 04:20:20;;;;;;;8.70;5.75;;;;;;;8.13;100.00;94919.63;5131613;27;20707;-75
2022/11/07 04:22:47;;;;;;;13.40;6.78;;;;;;;8.13;100.00;94911.53;5113093;28;20205;-74
2022/11/07 04:25:15;;;;;;;17.42;7.10;;;;;;;8.09;100.00;94902.44;5127000;27;20197;-74
2022/11/07 04:27:41;;;;;;;19.02;6.85;;;;;;;8.01;100.00;94911.28;5112782;28;20287;-74
2022/11/07 04:30:22;;;;;;;13.27;5.57;;;;;;;8.05;100.00;94907.69;5126757;27;20212;-76
2022/11/07 04:32:50;;;;;;;10.80;6.68;;;;;;;8.13;100.00;94903.44;5124352;27;20233;-75
2022/11/07 04:35:18;;;;;;;15.50;7.78;;;;;;;8.08;100.00;94912.44;5109493;27;20657;-75
2022/11/07 04:37:45;;;;;;;12.02;7.38;;;;;;;8.14;100.00;94910.44;5103250;28;20198;-75
2022/11/07 04:40:12;;;;;;;12.50;7.57;;;;;;;8.16;100.00;94908.22;5126356;27;20205;-75
2022/11/07 04:42:40;;;;;;;13.25;8.40;;;;;;;8.18;100.00;94911.44;5113129;28;20251;-75
2022/11/07 04:45:08;;;;;;;17.13;7.80;;;;;;;8.16;100.00;94911.72;5126681;27;20201;-75
2022/11/07 04:47:35;;;;;;;12.57;7.38;;;;;;;8.26;100.00;94918.78;5125225;27;20273;-75
2022/11/07 04:50:01;;;;;;;10.13;5.60;;;;;;;8.27;100.00;94904.19;5099051;28;20747;-77
2022/11/07 04:52:28;;;;;;;15.57;7.15;;;;;;;8.25;100.00;94914.50;5125419;27;20223;-75
2022/11/07 04:54:55;;;;;;;20.20;6.78;;;;;;;8.36;100.00;94913.16;5118638;27;20205;-76
2022/11/07 04:57:21;;;;;;;14.02;7.82;;;;;;;8.39;100.00;94917.16;5118962;27;20214;-75
2022/11/07 04:59:50;;;;;;;18.00;7.18;;;;;;;8.45;100.00;94914.06;5105772;27;20208;-74
2022/11/07 05:02:16;;;;;;;25.35;6.55;;;;;;;8.55;100.00;94916.50;5119316;27;20206;-75
2022/11/07 05:04:43;;;;;;;14.82;8.73;;;;;;;8.63;100.00;94917.66;5125595;27;20341;-74
2022/11/07 05:07:10;;;;;;;9.55;4.93;;;;;;;8.65;100.00;94925.44;5125115;27;20710;-75
2022/11/07 05:09:37;;;;;;;16.00;7.03;;;;;;;8.43;100.00;94924.34;5104451;28;20210;-76
2022/11/07 05:12:04;;;;;;;15.27;7.53;;;;;;;8.31;100.00;94921.38;5106330;27;20263;-76
2022/11/07 05:14:31;;;;;;;11.70;6.78;;;;;;;8.25;100.00;94927.97;5124728;27;20725;-79
2022/11/07 05:16:59;;;;;;;8.98;5.32;;;;;;;8.31;100.00;94926.78;5098753;28;20557;-76
2022/11/07 05:19:26;;;;;;;10.00;6.68;;;;;;;8.54;100.00;94933.00;5119851;27;20290;-75
2022/11/07 05:23:11;;;;;;;10.63;6.93;;;;;;;8.75;100.00;94933.28;5117547;27;20213;-76
2022/11/07 05:24:52;;;;;;;12.60;7.25;;;;;;;8.89;100.00;94936.72;5111145;28;20208;-76
2022/11/07 05:27:21;;;;;;;13.60;7.65;;;;;;;9.07;100.00;94943.81;5106028;28;20344;-76
2022/11/07 05:29:48;;;;;;;13.48;5.72;;;;;;;9.18;100.00;94944.34;5103730;28;20198;-76
2022/11/07 05:32:16;;;;;;;14.40;7.00;;;;;;;9.34;100.00;94942.03;5110232;28;20283;-75
2022/11/07 05:34:43;;;;;;;14.30;6.13;;;;;;;9.41;100.00;94942.41;5111186;28;20197;-75
2022/11/07 05:37:11;;;;;;;16.55;7.22;;;;;;;9.42;100.00;94954.81;5098147;28;20275;-75
2022/11/07 05:39:38;;;;;;;15.23;8.55;;;;;;;9.57;100.00;94955.16;5110447;28;20222;-75
2022/11/07 05:42:05;;;;;;;12.23;7.38;;;;;;;9.63;99.98;94955.84;5111292;28;20239;-76
2022/11/07 05:44:32;;;;;;;13.10;7.80;;;;;;;9.87;98.99;94961.63;5111445;28;20202;-76
2022/11/07 05:47:00;;;;;;;15.73;8.50;;;;;;;10.01;98.17;94955.28;5111311;28;20294;-76
2022/11/07 05:49:28;;;;;;;14.95;7.72;;;;;;;10.07;98.45;94964.88;5111047;28;20761;-76
2022/11/07 05:51:55;;;;;;;14.07;8.32;;;;;;;10.16;98.18;94962.97;5111434;28;20213;-76
2022/11/07 05:54:22;;;;;;;17.63;9.25;;;;;;;10.28;98.42;94965.88;5125463;27;20205;-77
2022/11/07 05:56:49;;;;;;;15.20;8.38;;;;;;;10.45;97.75;94970.50;5111387;28;20205;-75
2022/11/07 05:59:15;;;;;;;14.13;8.57;;;;;;;10.51;96.55;94975.47;5110278;28;20202;-77
2022/11/07 06:01:42;;;;;;;17.48;7.10;;;;;;;10.53;95.80;94973.22;5119506;27;20208;-76
2022/11/07 06:04:09;;;;;;;14.38;8.75;;;;;;;10.73;95.96;94969.06;5098903;27;20232;-75
2022/11/07 06:06:37;;;;;;;16.13;7.57;;;;;;;11.01;94.75;94972.25;5089777;28;20704;-75
2022/11/07 06:09:04;;;;;;;13.82;8.65;;;;;;;11.14;93.57;94970.47;5092664;28;20255;-76
2022/11/07 06:11:31;;;;;;;16.80;8.90;;;;;;;11.33;92.95;94979.84;5110803;28;20286;-76
2022/11/07 06:13:59;;;;;;;12.95;7.20;;;;;;;11.45;90.84;94979.16;5111101;28;20541;-76
2022/11/07 06:16:26;;;;;;;17.77;8.43;;;;;;;11.42;90.90;94976.28;5111022;28;20206;-76
2022/11/07 06:18:53;;;;;;;18.83;7.78;;;;;;;11.55;90.81;94983.44;5110982;28;20225;-76
2022/11/07 06:21:20;;;;;;;16.95;8.45;;;;;;;11.61;89.90;94991.06;5110225;28;20609;-76
2022/11/07 06:23:48;;;;;;;18.20;9.73;;;;;;;11.76;89.85;94987.03;5093734;28;20206;-75
2022/11/07 06:26:16;;;;;;;21.42;7.47;;;;;;;11.87;88.38;94982.84;5090148;28;20677;-75
2022/11/07 06:28:42;;;;;;;17.92;9.05;;;;;;;12.02;87.64;94989.66;5090086;28;20202;-76
2022/11/07 06:31:10;;;;;;;23.20;8.07;;;;;;;12.01;88.21;94988.84;5099784;28;20236;-77
2022/11/07 06:33:37;;;;;;;21.38;9.18;;;;;;;12.03;87.35;94989.28;5110400;28;20664;-76
2022/11/07 06:36:08;;;;;;;27.98;14.75;;;;;;;12.17;87.28;94996.41;5110208;28;20201;-76
2022/11/07 06:38:35;;;;;;;24.90;14.68;;;;;;;11.96;87.15;95001.81;5110019;28;20736;-77
2022/11/07 06:41:10;;;;;;;24.65;9.82;;;;;;;11.92;88.90;94996.22;5108381;28;20208;-76
2022/11/07 06:43:38;;;;;;;30.65;10.63;;;;;;;11.94;88.29;94999.41;5118464;27;20205;-76
2022/11/07 06:46:16;;;;;;;17.85;9.07;;;;;;;11.88;88.47;95008.88;5090049;28;20217;-76
2022/11/07 06:48:43;;;;;;;25.00;14.83;;;;;;;12.03;88.89;95008.31;5087847;28;20913;-73
2022/11/07 06:51:10;;;;;;;19.15;9.10;;;;;;;11.97;89.48;95011.53;5118832;27;20445;-78
2022/11/07 06:53:42;;;;;;;15.95;9.60;;;;;;;12.28;88.88;95008.50;5109608;28;20251;-78
2022/11/07 06:56:14;;;;;;;19.33;10.73;;;;;;;12.53;88.58;95012.19;5112960;27;20813;-77
2022/11/07 06:58:46;;;;;;;22.67;9.43;;;;;;;12.36;88.17;95019.31;5119511;27;20221;-76
2022/11/07 07:01:13;;;;;;;15.10;9.00;;;;;;;12.13;89.34;95022.66;5122156;27;20185;-76
2022/11/07 07:03:46;;;;;;;16.77;9.95;;;;;;;11.83;92.41;95019.91;5100312;27;20307;-77
2022/11/07 07:06:21;;;;;;;19.70;11.23;;;;;;;11.87;91.37;95023.56;5115344;27;20599;-77
2022/11/07 07:08:48;;;;;;;20.42;9.82;;;;;;;11.91;92.26;95021.78;5111807;27;21008;-77
2022/11/07 07:11:17;;;;;;;23.23;11.38;;;;;;;11.86;92.62;95030.13;5113292;27;20214;-78
2022/11/07 07:13:44;;;;;;;19.52;10.60;;;;;;;12.07;91.65;95028.25;5091525;28;20657;-78
2022/11/07 07:16:13;;;;;;;20.13;10.75;;;;;;;12.32;91.26;95025.72;5109918;27;20242;-79
2022/11/07 07:18:40;;;;;;;21.13;10.57;;;;;;;12.41;89.85;95023.78;5110867;28;20217;-77
2022/11/07 07:21:09;;;;;;;23.80;11.57;;;;;;;12.41;89.29;95037.38;5109590;28;20697;-77
2022/11/07 07:23:37;;;;;;;21.15;9.93;;;;;;;12.71;88.17;95025.31;5108937;28;20201;-77
2022/11/07 07:26:05;;;;;;;22.35;11.15;;;;;;;12.64;88.14;95030.50;5109587;28;20238;-78
2022/11/07 07:28:36;;;;;;;24.77;13.85;;;;;;;12.86;87.96;95028.56;5108801;28;20198;-76
2022/11/07 07:31:18;;;;;;;28.05;18.05;;;;;;;13.08;87.11;95028.22;5109806;28;20221;-77
2022/11/07 07:33:48;;;;;;;27.50;11.13;;;;;;;13.04;86.27;95016.41;5107674;28;20384;-77
2022/11/07 07:36:15;;;;;;;16.27;9.65;;;;;;;12.90;85.64;95027.56;5127186;27;20601;-77
2022/11/07 07:38:42;;;;;;;34.60;17.05;;;;;;;13.12;85.60;95026.41;5120557;27;20200;-79
2022/11/07 07:41:09;;;;;;;25.25;10.40;;;;;;;13.19;85.33;95032.16;5120745;27;20282;-77
2022/11/07 07:43:39;;;;;;;22.45;10.88;;;;;;;12.98;85.17;95025.94;5099304;28;20652;-78
2022/11/07 07:46:07;;;;;;;19.77;10.52;;;;;;;13.05;83.68;95026.97;5105577;27;20193;-74
2022/11/07 07:48:35;;;;;;;19.42;8.45;;;;;;;13.10;83.17;95023.25;5102590;28;20232;-74
2022/11/07 07:51:04;;;;;;;17.05;9.20;;;;;;;13.35;82.97;95024.97;5112926;28;20579;-78
2022/11/07 07:53:33;;;;;;;33.90;18.15;;;;;;;13.67;82.03;95011.66;5113031;28;20251;-77
2022/11/07 07:56:01;;;;;;;25.90;11.35;;;;;;;13.61;81.31;95021.19;5112760;28;20206;-79
2022/11/07 07:58:28;;;;;;;22.67;12.00;;;;;;;13.56;81.05;95024.91;5112668;27;20728;-79
2022/11/07 08:00:57;;;;;;;20.85;11.57;;;;;;;13.27;82.41;95034.00;5112975;28;20254;-76
2022/11/07 08:03:24;;;;;;;21.40;11.32;;;;;;;13.63;81.67;95029.81;5112765;28;20202;-81
2022/11/07 08:05:53;;;;;;;17.88;10.45;;;;;;;13.77;80.22;95024.88;5113202;28;20205;-78
2022/11/07 08:08:20;;;;;;;17.63;9.52;;;;;;;13.57;80.44;95020.25;5112498;28;20272;-78
2022/11/07 08:10:52;;;;;;;18.35;9.48;;;;;;;13.48;81.74;95023.09;5112925;28;20205;-78
2022/11/07 08:13:20;;;;;;;22.15;10.75;;;;;;;13.78;80.69;95027.25;5111292;28;20216;-78
2022/11/07 08:15:47;;;;;;;25.92;11.90;;;;;;;13.49;81.31;95025.47;5112203;28;20576;-79
2022/11/07 08:18:16;;;;;;;19.85;9.75;;;;;;;13.73;81.08;95013.03;5123929;27;20269;-78
2022/11/07 08:20:43;;;;;;;18.58;9.70;;;;;;;14.03;80.29;95022.63;5114275;27;20220;-78
2022/11/07 08:23:10;;;;;;;17.60;9.88;;;;;;;13.88;79.83;95021.34;5097986;28;20194;-76
2022/11/07 08:25:38;;;;;;;37.53;12.40;;;;;;;14.43;79.17;95024.69;5110088;28;20205;-78
2022/11/07 08:28:06;;;;;;;20.20;11.30;;;;;;;14.67;77.44;95021.94;5124014;27;20323;-80
2022/11/07 08:30:32;;;;;;;21.80;11.80;;;;;;;14.60;77.46;95024.47;5094106;27;20217;-79
2022/11/07 08:33:00;;;;;;;22.13;10.48;;;;;;;14.43;78.23;95030.16;5102996;28;20263;-79
2022/11/07 08:35:29;;;;;;;22.27;12.05;;;;;;;14.20;79.33;95022.41;5111473;28;20544;-77
2022/11/07 08:37:56;;;;;;;20.45;10.50;;;;;;;14.44;78.69;95020.84;5111628;28;20205;-76
2022/11/07 08:40:23;;;;;;;24.92;11.15;;;;;;;14.36;79.04;95024.44;5111527;28;20197;-76
2022/11/07 08:42:49;;;;;;;21.08;10.18;;;;;;;14.16;79.33;95037.84;5111808;28;20235;-79
2022/11/07 08:45:16;;;;;;;21.65;9.63;;;;;;;14.00;80.98;95022.50;5110677;28;20210;-76
2022/11/07 08:47:43;;;;;;;22.38;10.32;;;;;;;14.05;80.98;95035.91;5110629;28;20331;-79
2022/11/07 08:50:10;;;;;;;24.27;11.55;;;;;;;14.38;80.11;95027.59;5111609;28;20217;-78
2022/11/07 08:52:38;;;;;;;22.92;10.02;;;;;;;14.51;79.35;95023.75;5111477;28;20209;-76
2022/11/07 08:55:06;;;;;;;13.70;9.25;;;;;;;14.65;79.06;95026.94;5111956;28;20205;-78
2022/11/07 08:57:33;;;;;;;22.30;10.60;;;;;;;14.60;79.39;95026.38;5123326;27;20197;-78
2022/11/07 09:00:00;;;;;;;21.05;10.32;;;;;;;14.58;79.60;95015.81;5099776;28;20259;-77
2022/11/07 09:02:26;;;;;;;15.65;9.30;;;;;;;14.60;79.73;95019.00;5111607;28;20297;-79
2022/11/07 09:04:53;;;;;;;19.33;9.68;;;;;;;14.39;80.02;95024.53;5111443;28;20578;-79
2022/11/07 09:07:20;;;;;;;31.50;10.52;;;;;;;14.07;80.67;95018.09;5112740;27;20267;-80
2022/11/07 09:09:49;;;;;;;27.98;15.68;;;;;;;14.37;80.76;95020.56;5122333;27;20202;-79
2022/11/07 09:12:16;;;;;;;12.30;7.78;;;;;;;14.67;78.79;95035.56;5111243;28;20198;-81
2022/11/07 09:14:42;;;;;;;16.45;8.90;;;;;;;14.56;79.03;95026.28;5111175;28;20319;-81
2022/11/07 09:17:09;;;;;;;17.55;9.77;;;;;;;14.45;78.70;95033.31;5112914;27;20213;-79
2022/11/07 09:19:36;;;;;;;13.13;7.32;;;;;;;14.34;77.94;95037.63;5111364;27;20230;-81
2022/11/07 09:22:03;;;;;;;24.50;10.95;;;;;;;14.20;78.93;95032.50;5093103;28;20201;-81
2022/11/07 09:24:29;;;;;;;22.60;10.35;;;;;;;14.38;78.58;95033.06;5110938;28;20217;-79
2022/11/07 09:26:57;;;;;;;25.55;11.35;;;;;;;14.64;77.70;95027.28;5110092;28;20254;-79
2022/11/07 09:29:24;;;;;;;16.20;9.13;;;;;;;15.22;76.02;95014.97;5111513;27;20204;-85
2022/11/07 09:31:51;;;;;;;28.65;10.13;;;;;;;15.74;74.03;95019.50;5100082;27;20241;-77
2022/11/07 09:34:18;;;;;;;17.38;9.40;;;;;;;15.77;72.26;95010.63;5110545;28;20209;-80
2022/11/07 09:36:45;;;;;;;16.55;9.10;;;;;;;15.74;71.07;95014.84;5120883;27;20209;-81
2022/11/07 09:39:11;;;;;;;23.77;8.50;;;;;;;15.08;72.59;95007.16;5100797;28;20387;-80
2022/11/07 09:41:51;;;;;;;11.18;7.30;;;;;;;14.82;73.57;95018.50;5124326;27;20206;-77
2022/11/07 09:44:35;;;;;;;13.15;8.00;;;;;;;14.87;73.15;95001.09;5110756;28;20190;-78
2022/11/07 09:47:07;;;;;;;16.38;8.40;;;;;;;15.16;72.18;94991.81;5097219;28;20596;-84
2022/11/07 09:49:37;;;;;;;11.32;6.57;;;;;;;14.97;70.55;95005.28;5111229;28;20250;-80
2022/11/07 09:52:14;;;;;;;14.32;6.80;;;;;;;14.93;71.23;94989.59;5110254;28;20262;-79
2022/11/07 09:54:46;;;;;;;13.95;8.75;;;;;;;15.39;70.21;94998.28;5110209;28;20448;-80
2022/11/07 09:57:16;;;;;;;12.40;6.18;;;;;;;15.14;68.27;95005.00;5121384;27;20193;-76
2022/11/07 09:59:49;;;;;;;12.60;6.25;;;;;;;14.96;69.47;95006.41;5092092;27;20212;-78
2022/11/07 10:02:17;;;;;;;20.95;12.48;;;;;;;15.38;68.89;94993.97;5089875;28;20198;-79
2022/11/07 10:04:45;;;;;;;9.98;5.57;;;;;;;15.33;68.66;95005.13;5096882;28;20234;-78
2022/11/07 10:07:24;;;;;;;8.65;4.95;;;;;;;15.34;68.61;94993.06;5109834;28;20243;-80
2022/11/07 10:10:00;;;;;;;23.13;13.10;;;;;;;15.46;68.42;95006.66;5109988;27;20254;-77
2022/11/07 10:12:40;;;;;;;18.90;8.35;;;;;;;15.47;68.83;95008.25;5110348;28;20197;-77
2022/11/07 10:15:17;;;;;;;15.10;7.03;;;;;;;15.38;69.23;94988.50;5109964;28;20201;-78
2022/11/07 10:17:51;;;;;;;17.48;7.72;;;;;;;15.30;68.20;95003.13;5108998;28;20761;-78
2022/11/07 10:20:32;;;;;;;15.02;6.70;;;;;;;15.23;68.34;94983.78;5110528;28;20206;-80
2022/11/07 10:23:17;;;;;;;13.43;7.63;;;;;;;15.25;68.51;94995.16;5099809;28;20550;-80
2022/11/07 10:25:51;;;;;;;13.23;7.07;;;;;;;15.40;68.53;94980.75;5089334;28;20728;-76
2022/11/07 10:28:20;;;;;;;8.65;5.95;;;;;;;15.34;67.77;94982.16;5089456;28;20291;-84
2022/11/07 10:30:51;;;;;;;16.60;6.63;;;;;;;15.34;68.51;94979.41;5088900;28;20245;-75
2022/11/07 10:33:31;;;;;;;15.80;7.72;;;;;;;15.28;68.86;94969.91;5105080;28;20193;-79
2022/11/07 10:36:03;;;;;;;10.23;6.10;;;;;;;15.20;69.02;94970.84;5109313;28;20205;-76
2022/11/07 10:38:34;;;;;;;18.52;11.57;;;;;;;15.54;68.58;94964.75;5110060;28;20201;-78
2022/11/07 10:41:01;;;;;;;10.93;7.43;;;;;;;15.63;68.10;94968.13;5109310;28;20227;-79
2022/11/07 10:43:33;;;;;;;14.88;6.88;;;;;;;15.41;68.57;94960.50;5119424;27;20202;-81
2022/11/07 10:46:02;;;;;;;13.30;6.38;;;;;;;15.26;69.51;94947.63;5108797;28;20379;-78
2022/11/07 10:48:29;;;;;;;9.57;5.50;;;;;;;15.22;69.35;94952.19;5096336;27;20233;-80
2022/11/07 10:50:57;;;;;;;9.68;5.47;;;;;;;15.31;69.92;94949.31;5108153;28;20211;-78
2022/11/07 10:53:25;;;;;;;10.45;6.18;;;;;;;15.30;69.49;94953.97;5109954;28;20266;-81
2022/11/07 10:55:54;;;;;;;12.25;6.38;;;;;;;14.92;70.64;94949.81;5110098;28;20255;-79
2022/11/07 10:58:23;;;;;;;21.35;11.45;;;;;;;15.08;70.94;94940.88;5117819;27;20232;-79
2022/11/07 11:01:05;;;;;;;11.32;5.57;;;;;;;15.25;70.43;94940.56;5098854;27;20748;-78
2022/11/07 11:03:34;;;;;;;15.23;7.72;;;;;;;15.36;69.82;94936.19;5102106;28;20198;-81
2022/11/07 11:06:12;;;;;;;19.88;8.35;;;;;;;15.56;68.51;94935.19;5113717;28;20217;-80
2022/11/07 11:08:39;;;;;;;11.63;6.10;;;;;;;15.71;67.97;94936.34;5110066;28;20730;-78
2022/11/07 11:11:23;;;;;;;10.35;5.63;;;;;;;15.68;68.12;94930.78;5110629;28;20206;-79
2022/11/07 11:14:01;;;;;;;10.70;5.68;;;;;;;15.56;68.04;94929.75;5110681;28;20209;-80
2022/11/07 11:16:31;;;;;;;11.70;6.80;;;;;;;15.47;68.41;94926.34;5110406;28;20246;-82
2022/11/07 11:19:00;;;;;;;14.65;6.63;;;;;;;15.55;67.94;94932.81;5124790;28;20229;-82
2022/11/07 11:21:27;;;;;;;18.90;5.65;;;;;;;15.46;68.36;94923.94;5110452;28;20262;-82
2022/11/07 11:23:54;;;;;;;6.90;4.35;;;;;;;15.33;68.24;94920.50;5111657;28;20656;-82
2022/11/07 11:26:28;;;;;;;14.32;6.40;;;;;;;15.52;67.89;94923.34;5122655;28;20242;-79
2022/11/07 11:29:00;;;;;;;15.98;6.72;;;;;;;15.66;67.13;94919.41;5117420;27;20217;-78
2022/11/07 11:31:35;;;;;;;13.15;5.88;;;;;;;15.69;66.87;94916.00;5116534;27;20234;-79
2022/11/07 11:34:10;;;;;;;13.93;6.60;;;;;;;15.69;66.54;94910.53;5113264;27;20194;-79
2022/11/07 11:36:41;;;;;;;14.48;6.82;;;;;;;15.61;66.62;94909.53;5105367;28;20197;-80
2022/11/07 11:39:25;;;;;;;12.32;7.07;;;;;;;15.75;66.37;94903.63;5109515;28;20197;-80
2022/11/07 11:41:55;;;;;;;18.40;10.35;;;;;;;15.72;66.28;94904.34;5117741;28;20197;-83